Flight Track Log - Related Links

Times and Time Zones

All times are in EST time to prevent confusion due to time zone crossing. See the N449ND flight status page for this flight to view local times or setup timezone preferences in your user account.

Time Position Orientation Groundspeed Altitude Reporting Facility
EST Latitude Longitude Course Direction KTS MPH feet Rate Location/Type
Thu 04:51:09 PM 27.4972 -80.3944 262° West 98 113 3,000  Level Miami Center
Thu 04:52:09 PM 27.4947 -80.4156 262° West 83 96 1,700 500 Descending Miami Center
Thu 04:53:09 PM 27.4942 -80.4342 268° West 78 90 4,000 700 Climbing Miami Center
Thu 04:54:09 PM 27.4936 -80.4597 269° West 73 84 3,100 -150 Descending Miami Center
Thu 04:55:09 PM 27.4931 -80.4808 268° West 73 84 3,700 550 Climbing Miami Center
Thu 04:56:09 PM 27.5053 -80.4953 314° West 63 72 4,200 200 Climbing Miami Center
Thu 04:57:09 PM 27.5283 -80.4914 North 70 81 4,100 -50 Descending Miami Center
Thu 04:58:09 PM 27.5533 -80.4944 354° North 86 99 4,100  Level Miami Center
Thu 04:59:09 PM 27.5825 -80.4931 North 86 99 4,100  Level Miami Center
Thu 05:00:09 PM 27.6097 -80.4917 North 86 99 4,100  Level Miami Center
Thu 05:01:09 PM 27.6328 -80.4925 358° North 86 99 4,100  Level Miami Center
Thu 05:02:09 PM 27.6597 -80.4908 North 86 99 4,100 -100 Level Miami Center
Thu 05:03:09 PM 27.6853 -80.4800 21° North 86 99 3,900 -400 Descending Miami Center
Thu 05:04:09 PM 27.6692 -80.4514 122° Southeast 78 90 3,300 -400 Descending Miami Center
Thu 05:05:09 PM 27.6553 -80.4203 117° Southeast 111 128 3,100 -100 Descending Miami Center
Thu 05:06:09 PM 27.6436 -80.3872 112° Southeast 122 140 3,100  Level Miami Center
Thu 05:07:09 PM 27.6319 -80.3542 112° Southeast 116 133 3,100  Level Miami Center
Thu 05:08:09 PM 27.6183 -80.3161 112° Southeast 116 133 3,100  Level Miami Center
Thu 05:09:09 PM 27.6064 -80.2831 112° Southeast 111 128 3,100  Level Miami Center
Thu 05:10:09 PM 27.6217 -80.2600 53° Northeast 93 107 3,100 -150 Level Miami Center
Thu 05:11:09 PM 27.6189 -80.2881 264° West 36 41 2,800 -450 Descending Miami Center
Thu 05:12:09 PM 27.6183 -80.3161 269° West 84 97 2,200 -500 Descending Miami Center
Thu 05:13:09 PM 27.6281 -80.3422 293° West 90 104 1,800 -550 Descending Miami Center
Thu 05:14:09 PM 27.6358 -80.3683 289° West 85 98 1,100 -650 Descending Miami Center
Thu 05:15:09 PM 27.6436 -80.3894 293° West 85 98 500 -300 Descending Miami Center
Thu 05:16:09 PM 27.6514 -80.4108 292° West 90 104 500 1,250 Level Miami Center
Thu 05:17:09 PM 27.6467 -80.4389 259° West 83 96 3,000 900 Climbing Miami Center
Thu 05:18:09 PM 27.6439 -80.4600 262° West 83 96 2,300  Descending Miami Center
Thu 05:19:09 PM 27.6392 -80.4856 258° West 83 96 3,000 400 Climbing Miami Center
Thu 05:20:09 PM 27.6250 -80.4711 138° Southeast 76 87 3,100 100 Climbing Miami Center
Thu 05:21:09 PM 27.6172 -80.4381 105° East 90 104 3,200 -50 Climbing Miami Center
Thu 05:22:09 PM 27.6100 -80.3978 101° East 117 135 3,000 -50 Descending Miami Center
Thu 05:23:09 PM 27.6003 -80.3625 107° East 117 135 3,100 50 Climbing Miami Center
Thu 05:24:09 PM 27.5950 -80.3294 100° East 112 129 3,100 -50 Level Miami Center
Thu 05:25:09 PM 27.5894 -80.2989 102° East 106 122 3,000  Descending Miami Center
Thu 05:26:09 PM 27.5797 -80.2633 107° East 106 122 3,100  Climbing Miami Center
Thu 05:27:09 PM 27.5722 -80.2258 103° East 106 122 3,000  Descending Miami Center
Thu 05:28:09 PM 27.5647 -80.1903 103° East 106 122 3,100  Climbing Miami Center
Thu 05:29:09 PM 27.5592 -80.1597 102° East 106 122 3,000  Descending Miami Center
Thu 05:30:09 PM 27.5517 -80.1244 103° East 106 122 3,100 50 Climbing Miami Center
Thu 05:31:09 PM 27.5589 -80.0872 78° East 111 128 3,100  Level Miami Center
Thu 05:32:09 PM 27.5647 -80.0967 305° West 42 48 3,100 -50 Level Miami Center
Thu 05:33:09 PM 27.5517 -80.1197 237° Southwest 45 52 3,000  Descending Miami Center
Thu 05:34:09 PM 27.5575 -80.1433 286° West 81 93 3,100  Climbing Miami Center
Thu 05:35:09 PM 27.5706 -80.1225 55° Northeast 80 92 3,000 -50 Descending Miami Center
Thu 05:36:09 PM 27.5650 -80.0872 100° East 85 98 3,000 -50 Level Miami Center
Thu 05:37:09 PM 27.5542 -80.1081 240° Southwest 76 87 2,900 -250 Descending Miami Center
Thu 05:38:09 PM 27.5472 -80.1336 253° West 81 93 2,500 -350 Descending Miami Center
Thu 05:39:09 PM 27.5200 -80.1422 196° South 90 104 2,200 -250 Descending Miami Center
Thu 05:40:09 PM 27.4925 -80.1508 196° South 106 122 2,000 -100 Descending Miami Center
Thu 05:41:09 PM 27.4611 -80.1592 193° South 111 128 2,000 50 Level Miami Center
Thu 05:42:09 PM 27.4583 -80.1872 264° West 83 96 2,100 -150 Climbing Miami Center
Thu 05:43:09 PM 27.4639 -80.2156 282° West 88 101 1,700 -200 Descending Miami Center
Thu 05:44:09 PM 27.4697 -80.2392 286° West 88 101 1,700 -50 Level Miami Center
Thu 05:45:09 PM 27.4772 -80.2697 285° West 93 107 1,600 -200 Descending Miami Center
Thu 05:46:09 PM 27.4831 -80.2933 286° West 86 99 1,300 -350 Descending Miami Center
Thu 05:47:09 PM 27.4886 -80.3217 282° West 86 99 900 -450 Descending Miami Center
Thu 05:48:09 PM 27.4967 -80.3383 299° West 86 99 400 -500 Descending Miami Center

Login

Don't have an account? Register now (free) for customized features, flight alerts, and more!